Time;durP1;ratioP1;P1;durP2;ratioP2;P2;SDS_P1;SDS_P2;PMS_P1;PMS_P2;Temp;Humidity;BMP_temperature;BMP_pressure;BME280_temperature;BME280_humidity;BME280_pressure;Samples;Min_cycle;Max_cycle;Signal;HPM_P1;HPM_P2
2022/05/05 00:02:02;;;;;;;4.13;1.80;;;;;;;5.84;83.83;101863.66;5011910;28;20211;-49
2022/05/05 00:04:27;;;;;;;4.03;1.73;;;;;;;5.54;84.01;101858.41;5011717;28;20214;-49
2022/05/05 00:06:52;;;;;;;4.15;1.52;;;;;;;5.68;84.19;101865.47;5012021;28;20169;-48
2022/05/05 00:09:18;;;;;;;3.15;1.75;;;;;;;5.82;83.96;101854.84;5011291;28;20192;-49
2022/05/05 00:14:28;;;;;;;3.50;1.77;;;;;;;5.60;83.68;101854.88;5011101;28;20231;-49
2022/05/05 00:16:57;;;;;;;2.90;1.65;;;;;;;5.62;84.19;101863.72;5011705;28;20535;-49
2022/05/05 00:19:22;;;;;;;5.30;1.55;;;;;;;5.59;84.37;101863.72;5011267;28;20189;-48
2022/05/05 00:21:48;;;;;;;2.88;1.40;;;;;;;5.58;84.66;101851.31;5011505;28;20180;-47
2022/05/05 00:24:13;;;;;;;4.25;1.80;;;;;;;5.45;84.93;101853.09;5010065;28;20201;-50
2022/05/05 00:26:39;;;;;;;2.83;1.70;;;;;;;5.43;85.10;101859.31;5011485;28;20206;-51
2022/05/05 00:29:05;;;;;;;4.57;1.80;;;;;;;5.34;85.27;101857.53;5010914;28;20176;-47
2022/05/05 00:31:30;;;;;;;3.72;1.70;;;;;;;5.37;85.76;101863.72;5011197;28;20165;-46
2022/05/05 00:33:56;;;;;;;3.53;2.05;;;;;;;5.26;85.96;101868.16;5011272;28;20169;-46
2022/05/05 00:36:21;;;;;;;2.47;1.88;;;;;;;5.25;85.96;101858.44;5011522;28;20267;-45
2022/05/05 00:38:47;;;;;;;5.80;2.17;;;;;;;5.07;86.41;101856.66;5010669;28;20173;-46
2022/05/05 00:41:12;;;;;;;4.28;1.88;;;;;;;5.09;86.65;101859.28;5011225;28;20272;-45
2022/05/05 00:43:38;;;;;;;2.67;1.80;;;;;;;5.02;86.46;101863.69;5011174;28;20197;-46
2022/05/05 00:46:04;;;;;;;5.85;2.08;;;;;;;5.08;87.24;101858.41;5010792;28;20179;-46
2022/05/05 00:48:29;;;;;;;2.15;1.88;;;;;;;5.17;86.59;101854.88;5011306;28;20623;-46
2022/05/05 00:50:55;;;;;;;3.03;1.80;;;;;;;5.21;86.07;101853.13;5010489;28;20188;-44
2022/05/05 00:53:22;;;;;;;4.45;2.22;;;;;;;5.02;86.10;101860.16;5011052;28;20173;-45
2022/05/05 00:55:51;;;;;;;4.85;2.13;;;;;;;4.92;86.98;101862.81;5009653;28;20189;-45
2022/05/05 00:58:18;;;;;;;4.28;2.33;;;;;;;4.95;87.16;101867.25;5010554;28;20589;-44
2022/05/05 01:00:44;;;;;;;5.30;2.63;;;;;;;5.00;86.92;101857.50;5009365;28;20184;-45
2022/05/05 01:03:11;;;;;;;2.47;2.00;;;;;;;4.93;87.04;101867.22;5010759;28;20258;-46
2022/05/05 01:05:38;;;;;;;4.50;2.00;;;;;;;4.94;87.40;101860.16;5010945;28;20200;-44
2022/05/05 01:08:04;;;;;;;4.50;2.40;;;;;;;4.82;87.70;101866.31;5009384;28;20171;-45
2022/05/05 01:10:30;;;;;;;4.93;2.17;;;;;;;4.83;88.22;101860.16;5010216;28;20207;-42
2022/05/05 01:12:56;;;;;;;2.72;2.10;;;;;;;4.86;88.36;101870.75;5010818;28;20185;-44
2022/05/05 01:15:22;;;;;;;4.60;2.63;;;;;;;4.51;88.48;101878.63;5010569;28;20499;-45
2022/05/05 01:17:48;;;;;;;2.72;2.30;;;;;;;4.68;89.22;101868.97;5010717;28;20181;-46
2022/05/05 01:20:15;;;;;;;4.55;2.22;;;;;;;4.76;88.95;101861.00;5010141;28;20200;-45
2022/05/05 01:22:40;;;;;;;7.07;3.13;;;;;;;4.67;88.66;101867.16;5006416;28;20659;-44
2022/05/05 01:30:34;;;;;;;5.88;2.40;;;;;;;4.51;89.68;101868.03;4990282;28;20357;-45
2022/05/05 01:32:59;;;;;;;3.35;2.63;;;;;;;4.65;89.95;101866.28;4997643;28;20189;-46
2022/05/05 01:35:25;;;;;;;4.93;2.38;;;;;;;4.62;89.96;101876.03;4992559;28;20172;-46
2022/05/05 01:37:50;;;;;;;4.10;2.72;;;;;;;4.61;89.94;101864.50;4990781;28;20178;-47
2022/05/05 01:40:16;;;;;;;4.30;2.67;;;;;;;4.50;89.83;101877.75;4989833;28;20193;-47
2022/05/05 01:42:42;;;;;;;5.38;2.70;;;;;;;4.46;90.35;101870.66;4990745;28;20177;-47
2022/05/05 01:45:08;;;;;;;5.43;2.50;;;;;;;4.52;90.14;101877.75;4990404;28;20224;-47
2022/05/05 01:47:33;;;;;;;3.45;2.42;;;;;;;4.50;90.50;101866.22;4991004;28;20185;-47
2022/05/05 01:50:00;;;;;;;4.35;2.53;;;;;;;4.43;90.48;101875.06;5006590;28;20205;-45
2022/05/05 01:52:27;;;;;;;5.05;3.20;;;;;;;4.34;90.95;101884.75;5010698;28;20172;-48
2022/05/05 01:54:52;;;;;;;4.95;3.10;;;;;;;4.45;90.76;101873.31;5010280;28;20196;-47
2022/05/05 01:57:18;;;;;;;3.80;2.53;;;;;;;4.46;90.82;101878.63;5010186;28;20500;-49
2022/05/05 01:59:43;;;;;;;5.75;2.60;;;;;;;4.49;90.72;101878.63;5009711;28;20271;-52
2022/05/05 02:02:09;;;;;;;3.55;3.05;;;;;;;4.27;90.88;101879.41;5009965;28;20188;-47
2022/05/05 02:04:34;;;;;;;5.32;3.30;;;;;;;4.28;90.96;101884.72;4992886;28;20247;-47
2022/05/05 02:07:00;;;;;;;4.20;2.80;;;;;;;4.24;91.52;101879.38;5010107;28;20172;-46
2022/05/05 02:09:25;;;;;;;6.93;3.50;;;;;;;4.36;91.57;101884.75;5008308;28;20189;-47
2022/05/05 02:11:53;;;;;;;3.47;2.80;;;;;;;4.44;91.32;101882.13;5009997;28;20181;-45
2022/05/05 02:14:18;;;;;;;4.65;3.08;;;;;;;4.44;91.14;101882.13;5009835;28;20500;-47
2022/05/05 02:16:44;;;;;;;5.82;3.20;;;;;;;4.29;91.06;101885.63;5009779;28;20650;-49
2022/05/05 02:19:09;;;;;;;4.05;3.22;;;;;;;4.09;91.27;101878.44;5009667;28;20818;-46
2022/05/05 02:21:35;;;;;;;4.70;3.20;;;;;;;4.14;92.08;101889.06;5010031;28;20165;-46
2022/05/05 02:24:00;;;;;;;5.10;3.53;;;;;;;4.10;93.02;101887.28;5008489;28;20223;-45
2022/05/05 02:26:25;;;;;;;7.88;3.95;;;;;;;4.09;93.10;101902.31;5010275;28;20185;-46
2022/05/05 02:28:51;;;;;;;5.72;3.50;;;;;;;4.06;93.37;101891.66;5009607;28;20173;-46
2022/05/05 02:31:16;;;;;;;5.78;3.67;;;;;;;4.16;93.39;101891.75;5010027;28;20177;-46
2022/05/05 02:33:42;;;;;;;7.38;3.58;;;;;;;4.19;93.07;101899.72;5009689;28;20169;-46
2022/05/05 02:38:51;;;;;;;6.25;4.15;;;;;;;4.20;93.00;101901.47;5013296;28;20169;-46
2022/05/05 02:41:17;;;;;;;4.80;3.83;;;;;;;4.17;92.74;101902.34;5013575;28;20219;-47
2022/05/05 02:43:42;;;;;;;7.63;3.72;;;;;;;3.98;92.82;101903.09;5013245;28;20193;-47
2022/05/05 02:46:08;;;;;;;5.90;3.65;;;;;;;4.17;93.13;101902.34;5013268;28;20606;-49
2022/05/05 02:48:33;;;;;;;4.50;4.20;;;;;;;4.12;93.01;101898.78;5013318;28;20196;-46
2022/05/05 02:50:59;;;;;;;5.20;3.78;;;;;;;4.05;92.98;101900.53;5011819;28;20200;-46
2022/05/05 02:56:08;;;;;;;6.63;4.18;;;;;;;4.19;92.64;101900.59;5013182;28;20191;-48
2022/05/05 02:58:33;;;;;;;5.65;3.83;;;;;;;4.10;92.78;101908.50;5012897;28;20255;-46
2022/05/05 03:00:59;;;;;;;4.93;3.67;;;;;;;4.04;92.91;101911.09;5012740;28;20200;-48
2022/05/05 03:03:24;;;;;;;5.75;4.00;;;;;;;3.91;92.77;101897.78;5013092;28;20330;-48
2022/05/05 03:05:50;;;;;;;4.57;4.05;;;;;;;3.85;93.02;101902.16;5011496;28;20207;-49
2022/05/05 03:08:15;;;;;;;6.47;4.53;;;;;;;4.02;93.25;101908.44;5012606;28;20189;-46
2022/05/05 03:10:41;;;;;;;5.32;4.45;;;;;;;4.15;92.88;101905.88;5012064;28;20184;-47
2022/05/05 03:13:06;;;;;;;6.65;4.07;;;;;;;4.12;92.75;101904.09;5013053;28;20165;-45
2022/05/05 03:15:32;;;;;;;5.32;4.82;;;;;;;4.19;92.43;101913.84;5012589;28;20172;-50
2022/05/05 03:17:58;;;;;;;5.03;4.22;;;;;;;4.13;92.24;101903.19;5012699;28;20226;-47
2022/05/05 03:20:23;;;;;;;10.15;4.60;;;;;;;3.95;92.25;101903.97;5012840;28;20247;-47
2022/05/05 03:22:49;;;;;;;5.53;4.97;;;;;;;3.91;92.53;101892.50;5012832;28;20513;-46
2022/05/05 03:25:14;;;;;;;5.30;4.68;;;;;;;3.87;93.14;101909.25;5012745;28;20172;-48
2022/05/05 03:27:40;;;;;;;5.97;5.22;;;;;;;3.88;93.27;101912.78;5012521;28;20264;-52
2022/05/05 03:30:06;;;;;;;5.03;4.53;;;;;;;3.94;93.57;101917.25;5012351;28;20227;-48
2022/05/05 03:32:32;;;;;;;8.05;5.57;;;;;;;3.93;93.33;101921.66;5003847;28;20172;-48
2022/05/05 03:35:01;;;;;;;6.25;5.50;;;;;;;3.84;93.52;101910.97;5012030;28;20168;-48
2022/05/05 03:37:30;;;;;;;8.77;5.25;;;;;;;3.91;93.67;101921.66;5012032;28;20169;-52
2022/05/05 03:39:56;;;;;;;6.95;5.00;;;;;;;3.93;93.60;101919.00;5011918;28;20212;-48
2022/05/05 03:42:21;;;;;;;5.45;4.90;;;;;;;3.94;93.70;101920.78;5011992;28;20165;-50
2022/05/05 03:44:47;;;;;;;7.78;5.57;;;;;;;3.87;93.73;101918.94;5011687;28;20501;-48
2022/05/05 03:47:12;;;;;;;6.20;5.60;;;;;;;3.94;93.75;101923.44;5012474;28;20220;-48
2022/05/05 03:49:38;;;;;;;6.38;5.70;;;;;;;3.85;93.71;101933.97;5011318;28;20247;-48
2022/05/05 03:52:04;;;;;;;6.55;5.20;;;;;;;3.89;94.23;101919.84;5011753;28;20180;-50
2022/05/05 03:54:29;;;;;;;8.95;5.70;;;;;;;4.00;94.03;101933.19;5011622;28;20183;-48
2022/05/05 03:56:55;;;;;;;7.22;6.13;;;;;;;4.02;93.92;101931.41;5011357;28;20172;-48
2022/05/05 03:59:23;;;;;;;8.35;6.07;;;;;;;4.02;93.80;101942.03;5011819;28;20296;-48
2022/05/05 04:01:49;;;;;;;7.85;6.03;;;;;;;3.98;93.95;101945.53;5011738;28;20632;-48
2022/05/05 04:04:15;;;;;;;7.93;6.28;;;;;;;4.02;93.63;101934.94;5011817;28;20307;-49
2022/05/05 04:06:41;;;;;;;7.38;6.63;;;;;;;3.90;93.36;101940.19;5011702;28;20777;-47
2022/05/05 04:09:07;;;;;;;10.20;7.10;;;;;;;3.98;93.69;101948.19;5011303;28;20169;-47
2022/05/05 04:11:32;;;;;;;7.40;6.72;;;;;;;4.07;93.92;101938.53;5011749;28;20181;-49
2022/05/05 04:13:58;;;;;;;7.65;6.80;;;;;;;4.09;93.98;101944.75;5011125;28;20157;-51
2022/05/05 04:16:23;;;;;;;8.38;6.15;;;;;;;4.10;94.02;101940.31;5011285;28;20270;-44
2022/05/05 04:18:49;;;;;;;7.82;6.57;;;;;;;4.03;94.16;101942.06;5011216;28;20173;-47
2022/05/05 04:21:14;;;;;;;9.10;6.57;;;;;;;4.10;94.37;101949.16;5011273;28;20247;-45
2022/05/05 04:23:40;;;;;;;8.52;6.70;;;;;;;4.26;94.78;101943.94;5010838;28;20255;-48
2022/05/05 04:26:06;;;;;;;9.27;6.93;;;;;;;4.35;94.57;101946.66;5010764;28;20179;-45
2022/05/05 04:28:32;;;;;;;9.93;7.30;;;;;;;4.34;94.43;101955.50;5011050;28;20167;-47
2022/05/05 04:30:57;;;;;;;7.80;6.90;;;;;;;4.57;94.53;101947.66;5011085;28;20276;-44
2022/05/05 04:33:23;;;;;;;7.32;6.60;;;;;;;4.63;94.34;101952.97;5011275;28;20169;-49
2022/05/05 04:35:49;;;;;;;9.57;7.30;;;;;;;4.80;94.28;101952.19;5011740;28;20583;-49
2022/05/05 04:38:14;;;;;;;9.40;8.00;;;;;;;4.83;94.10;101947.78;5011489;28;20274;-48
2022/05/05 04:40:40;;;;;;;8.02;7.32;;;;;;;4.90;93.72;101956.66;5009917;28;20192;-49
2022/05/05 04:43:06;;;;;;;11.30;7.05;;;;;;;5.02;93.53;101953.13;5011153;28;20184;-46
2022/05/05 04:45:31;;;;;;;9.52;7.30;;;;;;;5.15;93.54;101953.16;5011310;28;20176;-46
2022/05/05 04:47:57;;;;;;;10.68;7.65;;;;;;;5.23;93.80;101953.19;5011266;28;20244;-51
2022/05/05 04:50:23;;;;;;;9.77;7.78;;;;;;;5.30;93.72;101948.75;5010927;28;20189;-48
2022/05/05 04:52:49;;;;;;;9.15;8.00;;;;;;;5.59;93.55;101951.44;5011260;28;20200;-48
2022/05/05 04:55:15;;;;;;;12.70;7.55;;;;;;;5.78;93.25;101942.59;5010710;28;20529;-51
2022/05/05 04:57:40;;;;;;;9.75;7.13;;;;;;;6.16;92.51;101940.78;5011105;28;20261;-50
2022/05/05 05:00:08;;;;;;;10.68;7.32;;;;;;;6.38;91.46;101941.63;5010075;28;20275;-50
2022/05/05 05:02:34;;;;;;;9.57;7.13;;;;;;;6.42;90.43;101953.16;5011210;28;20169;-49
2022/05/05 05:04:59;;;;;;;12.20;6.85;;;;;;;6.20;89.65;101942.56;5011268;28;20157;-53
2022/05/05 05:07:25;;;;;;;9.90;6.38;;;;;;;6.54;89.43;101950.47;5010599;28;20234;-49
2022/05/05 05:09:50;;;;;;;11.82;6.97;;;;;;;6.66;89.48;101957.50;5011088;28;20267;-49
2022/05/05 05:12:16;;;;;;;7.22;6.53;;;;;;;6.69;88.05;101965.47;5011031;28;20167;-51
2022/05/05 05:14:41;;;;;;;8.68;6.60;;;;;;;6.98;87.41;101970.69;5010941;28;20195;-48
2022/05/05 05:17:06;;;;;;;7.85;5.80;;;;;;;7.17;86.60;101960.78;5010602;28;20195;-48
2022/05/05 05:19:32;;;;;;;8.85;6.00;;;;;;;7.26;85.93;101974.09;5010426;28;20655;-51
2022/05/05 05:21:58;;;;;;;6.78;5.88;;;;;;;7.07;86.23;101969.75;5010677;28;20176;-48
2022/05/05 05:24:23;;;;;;;10.35;6.30;;;;;;;7.00;86.15;101968.91;5010183;28;20195;-49
2022/05/05 05:26:48;;;;;;;7.70;6.05;;;;;;;7.16;85.43;101962.59;5010576;28;20266;-51
2022/05/05 05:29:14;;;;;;;6.75;5.40;;;;;;;7.21;85.13;101975.88;5010587;28;20231;-47
2022/05/05 05:31:39;;;;;;;7.82;6.07;;;;;;;7.19;84.77;101980.34;5010653;28;20775;-49
2022/05/05 05:34:05;;;;;;;8.05;6.35;;;;;;;7.37;84.96;101971.34;5010663;28;20169;-48
2022/05/05 05:36:30;;;;;;;8.63;5.70;;;;;;;7.42;84.40;101966.88;5009051;28;20179;-46
2022/05/05 05:38:56;;;;;;;7.95;5.88;;;;;;;7.63;84.50;101976.47;5010491;28;20546;-47
2022/05/05 05:41:21;;;;;;;8.27;5.75;;;;;;;7.66;83.91;101976.47;5010075;28;20195;-49
2022/05/05 05:43:47;;;;;;;8.70;5.30;;;;;;;7.57;83.17;101987.22;5010374;28;20188;-48
2022/05/05 05:46:13;;;;;;;5.20;4.70;;;;;;;7.77;83.23;101981.72;5010704;28;20645;-51
2022/05/05 05:48:38;;;;;;;7.82;5.57;;;;;;;7.84;82.42;101986.09;5006545;28;20169;-48
2022/05/05 05:51:05;;;;;;;7.57;5.22;;;;;;;7.95;82.29;101991.34;5000921;28;20777;-49
2022/05/05 05:53:31;;;;;;;7.15;5.47;;;;;;;8.22;81.55;101984.88;5009335;28;20177;-47
2022/05/05 05:55:56;;;;;;;6.30;4.78;;;;;;;8.30;80.88;101987.47;4991550;28;20200;-49
2022/05/05 05:58:21;;;;;;;6.85;4.85;;;;;;;8.34;80.81;101994.56;4996968;28;20171;-47
2022/05/05 06:00:47;;;;;;;8.05;4.68;;;;;;;8.66;79.57;101994.25;5001545;23;20225;-47
2022/05/05 06:05:56;;;;;;;6.28;4.13;;;;;;;8.56;78.59;102001.47;5009532;28;20184;-48
2022/05/05 06:08:22;;;;;;;5.72;5.13;;;;;;;8.54;78.17;101992.56;5009567;28;20205;-48
2022/05/05 06:10:47;;;;;;;8.40;4.57;;;;;;;8.09;79.51;101994.81;5009012;28;20208;-50
2022/05/05 06:13:13;;;;;;;5.07;3.67;;;;;;;8.56;79.02;102006.81;5013453;28;20169;-49
2022/05/05 06:15:38;;;;;;;6.38;4.25;;;;;;;8.41;78.14;101999.84;5013553;28;20546;-48
2022/05/05 06:18:04;;;;;;;6.95;4.40;;;;;;;8.67;77.90;102009.34;5013940;28;20323;-46
2022/05/05 06:20:29;;;;;;;8.73;5.22;;;;;;;8.76;78.01;102008.38;5011922;28;20196;-47
2022/05/05 06:22:55;;;;;;;7.57;4.40;;;;;;;9.10;77.50;101998.16;5013346;28;20252;-46
2022/05/05 06:25:23;;;;;;;8.55;4.60;;;;;;;9.57;76.09;102001.03;5013897;28;20169;-44
2022/05/05 06:27:49;;;;;;;6.55;4.22;;;;;;;9.65;74.64;102004.50;5013440;28;20282;-45
2022/05/05 06:30:15;;;;;;;7.20;4.65;;;;;;;9.48;73.72;102002.06;5013373;28;20384;-48
2022/05/05 06:32:40;;;;;;;7.65;4.45;;;;;;;9.42;74.11;101995.03;5013153;28;20244;-44
2022/05/05 06:35:07;;;;;;;9.00;4.90;;;;;;;9.30;75.78;102008.56;5013481;28;20199;-48
2022/05/05 06:37:32;;;;;;;8.02;5.00;;;;;;;9.48;74.98;102004.72;5012925;28;20173;-45
2022/05/05 06:39:58;;;;;;;8.90;4.95;;;;;;;9.93;75.02;102004.03;5013066;28;20204;-46
2022/05/05 06:42:24;;;;;;;7.43;4.57;;;;;;;9.92;74.11;101996.91;5016250;28;20212;-45
2022/05/05 06:44:49;;;;;;;8.20;4.20;;;;;;;10.37;72.88;102002.41;5005759;28;20200;-46
2022/05/05 06:47:15;;;;;;;8.48;4.22;;;;;;;10.19;71.73;102012.53;5006848;28;20714;-45
2022/05/05 06:49:40;;;;;;;7.13;4.60;;;;;;;10.20;72.73;102002.69;5009634;28;20197;-48
2022/05/05 06:52:06;;;;;;;7.00;4.35;;;;;;;10.34;72.65;102010.50;5010728;28;20164;-45
2022/05/05 06:54:31;;;;;;;8.65;4.55;;;;;;;10.74;71.34;102002.59;5014920;28;20553;-43
2022/05/05 06:56:57;;;;;;;7.65;4.65;;;;;;;10.69;71.21;102012.50;5009553;28;20187;-45
2022/05/05 06:59:22;;;;;;;7.68;4.50;;;;;;;10.59;71.48;102018.97;5012193;28;20666;-47
2022/05/05 07:01:54;;;;;;;7.18;4.05;;;;;;;10.17;72.68;102017.03;5008992;28;20219;-46
2022/05/05 07:07:06;;;;;;;8.55;3.95;;;;;;;11.07;69.78;102016.22;5013203;28;20223;-45
2022/05/05 07:12:17;;;;;;;6.65;4.13;;;;;;;10.84;69.56;102022.03;5012708;28;20176;-44
2022/05/05 07:14:44;;;;;;;5.72;3.42;;;;;;;11.24;69.60;102010.47;5012533;28;20176;-45
2022/05/05 07:17:09;;;;;;;8.65;3.80;;;;;;;11.44;69.11;102027.00;5012616;28;20177;-46
2022/05/05 07:19:35;;;;;;;5.65;2.97;;;;;;;11.53;69.10;102024.13;5011982;28;20212;-48
2022/05/05 07:22:01;;;;;;;9.38;3.65;;;;;;;11.29;68.93;102027.34;5012245;28;20168;-49
2022/05/05 07:24:26;;;;;;;5.30;2.97;;;;;;;11.45;69.22;102031.44;5011338;28;20255;-47
2022/05/05 07:26:52;;;;;;;6.00;3.53;;;;;;;11.36;68.53;102026.28;5011927;28;20180;-51
2022/05/05 07:29:17;;;;;;;7.25;3.13;;;;;;;11.16;68.86;102032.09;5012108;28;20199;-49
2022/05/05 07:31:43;;;;;;;4.43;2.72;;;;;;;11.88;68.15;102022.44;5012328;28;20225;-51
2022/05/05 07:34:08;;;;;;;7.20;3.00;;;;;;;12.03;67.45;102013.13;5012565;28;20541;-48
2022/05/05 07:36:33;;;;;;;5.45;2.70;;;;;;;12.12;66.54;102017.38;5012318;28;20257;-47
2022/05/05 07:38:59;;;;;;;7.03;2.50;;;;;;;11.78;65.54;102019.97;5012601;28;20188;-49
2022/05/05 07:41:24;;;;;;;8.80;2.60;;;;;;;11.18;66.75;102027.59;5011259;28;20619;-48
2022/05/05 07:43:50;;;;;;;6.55;2.90;;;;;;;12.15;66.03;102019.97;5011911;28;20307;-47
2022/05/05 07:46:18;;;;;;;9.25;3.08;;;;;;;11.90;65.19;102022.41;5012320;28;20177;-47
2022/05/05 07:48:44;;;;;;;5.07;2.65;;;;;;;12.16;66.27;102041.44;5011698;28;20616;-49
2022/05/05 07:51:10;;;;;;;7.35;3.15;;;;;;;12.26;66.15;102034.00;5011455;28;20188;-48
2022/05/05 07:53:35;;;;;;;4.65;2.75;;;;;;;11.97;65.84;102033.88;5011449;28;20188;-47
2022/05/05 07:56:01;;;;;;;5.28;2.60;;;;;;;12.15;66.36;102038.78;5011859;28;20177;-46
2022/05/05 07:58:26;;;;;;;7.25;2.70;;;;;;;11.16;67.11;102042.84;5011847;28;20173;-46
2022/05/05 08:00:52;;;;;;;5.35;2.47;;;;;;;11.78;67.33;102038.75;5011413;28;20203;-46
2022/05/05 08:03:18;;;;;;;7.20;2.70;;;;;;;12.67;63.38;102037.41;5012039;28;20287;-50
2022/05/05 08:05:44;;;;;;;4.60;2.55;;;;;;;12.99;62.60;102033.78;5009871;28;20203;-49
2022/05/05 08:08:10;;;;;;;6.55;2.55;;;;;;;12.74;62.29;102038.97;5011885;28;20630;-47
2022/05/05 08:10:35;;;;;;;6.22;2.92;;;;;;;12.85;63.38;102036.00;5011054;28;20264;-43
2022/05/05 08:13:00;;;;;;;7.78;3.28;;;;;;;13.00;62.89;102040.06;5012064;28;20593;-48
2022/05/05 08:15:26;;;;;;;6.80;2.97;;;;;;;13.32;61.72;102040.97;5011829;28;20307;-48
2022/05/05 08:17:52;;;;;;;6.57;2.40;;;;;;;13.27;61.50;102040.16;5011965;28;20636;-43
2022/05/05 08:20:17;;;;;;;5.78;2.70;;;;;;;12.83;62.29;102050.41;5011890;28;20252;-46
2022/05/05 08:22:43;;;;;;;10.05;3.10;;;;;;;13.32;60.98;102041.84;5011271;28;20173;-47
2022/05/05 08:30:37;;;;;;;8.18;2.50;;;;;;;12.99;60.96;102041.00;5011478;28;20670;-47
2022/05/05 08:33:03;;;;;;;9.20;2.83;;;;;;;13.03;61.76;102048.06;5011289;28;20200;-45
2022/05/05 08:35:29;;;;;;;6.90;2.92;;;;;;;13.26;61.61;102051.88;5011286;28;20274;-50
2022/05/05 08:37:55;;;;;;;5.90;2.45;;;;;;;13.42;61.30;102046.94;5011582;28;20542;-46
2022/05/05 08:40:27;;;;;;;7.57;2.63;;;;;;;13.57;60.82;102041.94;5010676;28;20199;-44
2022/05/05 08:42:53;;;;;;;7.97;2.95;;;;;;;13.65;61.16;102044.41;5011486;28;20180;-46
2022/05/05 08:45:20;;;;;;;7.88;2.97;;;;;;;13.57;61.03;102052.72;5011137;28;20172;-45
2022/05/05 08:47:47;;;;;;;5.70;2.58;;;;;;;13.67;61.00;102052.44;5011053;28;20179;-50
2022/05/05 08:50:13;;;;;;;5.40;2.40;;;;;;;14.46;57.98;102046.22;5009999;28;20216;-49
2022/05/05 08:52:48;;;;;;;3.28;2.30;;;;;;;14.00;58.55;102050.47;5011295;28;20172;-46
2022/05/05 08:55:16;;;;;;;5.35;2.58;;;;;;;12.92;59.54;102048.38;5011126;28;20235;-47
2022/05/05 08:57:42;;;;;;;5.95;2.65;;;;;;;13.74;60.11;102048.63;5010897;28;20179;-50
2022/05/05 09:00:10;;;;;;;6.32;2.78;;;;;;;12.67;60.21;102048.16;5010518;28;20185;-49
2022/05/05 09:02:36;;;;;;;4.82;2.40;;;;;;;13.06;60.95;102057.84;5010943;28;20199;-46
2022/05/05 09:05:03;;;;;;;5.85;2.38;;;;;;;13.92;60.83;102045.31;5010880;28;20855;-45
2022/05/05 09:07:49;;;;;;;4.40;2.40;;;;;;;14.28;58.48;102044.13;5011041;28;20189;-45
2022/05/05 09:10:16;;;;;;;6.50;2.42;;;;;;;14.36;57.44;102050.16;5010900;28;20188;-44
2022/05/05 09:12:41;;;;;;;7.00;2.83;;;;;;;13.50;58.66;102063.75;5011346;28;20211;-45
2022/05/05 09:15:10;;;;;;;6.22;2.30;;;;;;;13.98;58.61;102053.22;5010615;28;20165;-45
2022/05/05 09:17:36;;;;;;;3.55;2.03;;;;;;;14.83;57.12;102055.72;5010902;28;20539;-46
2022/05/05 09:20:06;;;;;;;7.13;2.50;;;;;;;15.02;54.89;102055.91;5010693;28;20197;-44
2022/05/05 09:22:31;;;;;;;4.18;2.20;;;;;;;15.03;54.96;102061.25;5010953;28;20176;-47
2022/05/05 09:24:57;;;;;;;6.32;1.90;;;;;;;14.22;54.71;102058.72;5010293;28;20695;-44
2022/05/05 09:27:28;;;;;;;9.38;2.58;;;;;;;13.43;56.39;102062.16;5010787;28;20195;-43
2022/05/05 09:30:08;;;;;;;4.57;2.28;;;;;;;13.33;56.41;102064.25;5010338;28;20196;-45
2022/05/05 09:32:42;;;;;;;4.38;1.92;;;;;;;13.79;56.96;102066.38;5010373;28;20586;-46
2022/05/05 09:35:09;;;;;;;3.22;1.90;;;;;;;13.46;55.39;102067.44;5011223;28;20176;-44
2022/05/05 09:37:35;;;;;;;3.90;2.20;;;;;;;13.92;55.08;102068.69;5009190;28;20192;-44
2022/05/05 09:40:02;;;;;;;4.05;2.00;;;;;;;13.56;54.45;102069.81;5009332;28;20188;-43
2022/05/05 09:42:41;;;;;;;7.38;2.45;;;;;;;13.24;55.08;102070.75;5010536;28;20168;-44
2022/05/05 09:45:11;;;;;;;7.95;2.05;;;;;;;13.89;55.02;102064.28;5010600;28;20222;-43
2022/05/05 09:47:37;;;;;;;3.85;2.17;;;;;;;14.52;54.58;102061.28;5010239;28;20198;-44
2022/05/05 09:50:03;;;;;;;5.30;1.90;;;;;;;14.05;53.06;102055.72;5010103;28;20643;-45
2022/05/05 09:58:23;;;;;;;4.97;2.58;;;;;;;14.41;53.18;102057.16;4994459;28;20200;-45
2022/05/05 10:01:04;;;;;;;8.40;2.70;;;;;;;14.13;54.83;102069.81;5009827;28;20248;-45
2022/05/05 10:04:03;;;;;;;5.88;2.47;;;;;;;14.77;54.60;102062.22;5010284;28;20560;-45
2022/05/05 10:06:37;;;;;;;6.80;2.00;;;;;;;15.19;53.69;102064.25;5010127;28;20547;-45
2022/05/05 10:09:08;;;;;;;5.55;2.60;;;;;;;15.64;53.87;102063.41;5010292;28;20175;-44
2022/05/05 10:11:35;;;;;;;5.45;2.10;;;;;;;15.40;53.20;102070.66;5009782;28;20172;-44
2022/05/05 10:14:02;;;;;;;6.00;2.53;;;;;;;15.31;53.05;102062.94;5010543;28;20169;-46
2022/05/05 10:16:30;;;;;;;7.25;2.30;;;;;;;16.05;52.05;102052.78;5010015;28;20168;-42
2022/05/05 10:18:56;;;;;;;5.25;2.35;;;;;;;16.28;52.54;102051.81;5010123;28;20169;-43
2022/05/05 10:21:44;;;;;;;7.30;2.25;;;;;;;15.86;53.21;102063.47;5010044;28;20643;-44
2022/05/05 10:24:22;;;;;;;5.18;2.65;;;;;;;16.14;52.60;102053.34;5009658;28;20303;-42
2022/05/05 10:26:55;;;;;;;3.17;1.83;;;;;;;15.59;53.10;102048.31;5010698;28;20184;-44
2022/05/05 10:29:36;;;;;;;6.07;2.33;;;;;;;15.21;54.63;102067.78;5009804;28;20625;-44
2022/05/05 10:32:11;;;;;;;3.88;2.33;;;;;;;15.58;53.34;102068.19;5010126;28;20323;-44
2022/05/05 10:34:42;;;;;;;6.50;2.50;;;;;;;14.66;53.36;102064.41;5009722;28;20200;-44
2022/05/05 10:37:10;;;;;;;4.43;2.10;;;;;;;14.89;54.47;102058.19;5010447;28;20177;-43
2022/05/05 10:40:06;;;;;;;3.67;2.28;;;;;;;14.98;55.32;102062.38;5009801;28;20192;-44
2022/05/05 10:42:58;;;;;;;4.53;2.17;;;;;;;14.93;54.49;102070.63;5005531;28;20196;-45
2022/05/05 10:45:26;;;;;;;6.55;2.67;;;;;;;15.14;54.60;102062.69;5008594;28;20642;-44
2022/05/05 10:47:52;;;;;;;4.47;2.47;;;;;;;15.14;54.58;102062.69;5010420;28;20252;-44
2022/05/05 10:53:40;;;;;;;5.07;2.45;;;;;;;16.66;54.40;102064.59;5010084;28;20223;-46
2022/05/05 10:56:28;;;;;;;4.07;3.15;;;;;;;16.24;52.30;102057.41;5009923;28;20556;-44
2022/05/05 10:59:09;;;;;;;7.18;3.03;;;;;;;16.17;53.99;102066.72;5010795;28;20536;-44
2022/05/05 11:01:44;;;;;;;4.05;2.78;;;;;;;16.43;53.88;102069.22;5011748;28;20195;-43
2022/05/05 11:04:15;;;;;;;6.20;2.80;;;;;;;16.20;53.79;102067.50;5013041;28;20188;-45
2022/05/05 11:06:44;;;;;;;4.13;2.50;;;;;;;16.08;53.88;102061.72;5013358;28;20302;-44
2022/05/05 11:09:27;;;;;;;5.22;2.65;;;;;;;16.70;52.89;102066.25;5013268;28;20594;-43
2022/05/05 11:12:19;;;;;;;4.18;2.80;;;;;;;16.72;52.86;102072.47;5012994;28;20636;-45
2022/05/05 11:23:47;;;;;;;5.30;2.70;;;;;;;16.20;54.24;102072.91;5013188;28;20200;-50
2022/05/05 11:26:17;;;;;;;4.72;2.92;;;;;;;16.34;53.45;102066.91;5013164;28;20655;-44
2022/05/05 11:28:43;;;;;;;5.13;3.25;;;;;;;16.45;53.67;102064.63;5012805;28;20554;-44
2022/05/05 11:31:27;;;;;;;7.35;3.10;;;;;;;16.87;52.90;102069.09;5011136;28;20189;-44
2022/05/05 11:34:01;;;;;;;8.88;3.95;;;;;;;17.39;52.63;102064.97;5013364;28;20619;-45
2022/05/05 11:36:28;;;;;;;5.30;3.25;;;;;;;16.70;55.27;102074.34;5012950;28;20177;-48
2022/05/05 11:38:54;;;;;;;7.03;3.17;;;;;;;16.59;54.82;102080.22;5012321;28;20226;-48
2022/05/05 11:41:20;;;;;;;4.65;3.25;;;;;;;16.71;54.09;102084.25;5012526;28;20635;-45
2022/05/05 11:46:31;;;;;;;8.38;3.63;;;;;;;16.39;55.89;102082.94;5012954;28;20577;-46
2022/05/05 11:48:57;;;;;;;8.40;4.10;;;;;;;16.10;55.75;102086.88;5012179;28;20176;-46
2022/05/05 11:51:25;;;;;;;5.13;3.38;;;;;;;16.19;55.95;102086.47;5012474;28;20631;-47
2022/05/05 11:54:05;;;;;;;5.07;3.33;;;;;;;16.52;56.01;102089.56;5012356;28;20165;-46
2022/05/05 11:56:32;;;;;;;5.63;4.28;;;;;;;16.29;56.19;102082.47;5012350;28;20244;-46
2022/05/05 12:02:04;;;;;;;5.55;3.25;;;;;;;16.30;56.10;102076.09;4990861;28;20204;-48
2022/05/05 12:04:31;;;;;;;5.40;3.08;;;;;;;16.63;55.61;102081.00;5011108;28;20197;-47
2022/05/05 12:06:58;;;;;;;5.15;3.20;;;;;;;16.73;55.18;102073.38;5011791;28;20576;-47
2022/05/05 12:09:24;;;;;;;9.32;3.60;;;;;;;17.20;54.47;102076.66;5011651;28;20290;-46
2022/05/05 12:11:49;;;;;;;8.13;4.10;;;;;;;16.81;54.98;102082.91;5011654;28;20177;-48
2022/05/05 12:14:16;;;;;;;6.55;3.40;;;;;;;17.23;54.95;102084.66;5012010;28;20639;-47
2022/05/05 12:16:43;;;;;;;6.88;3.83;;;;;;;16.89;54.78;102080.75;5011762;28;20249;-46
2022/05/05 12:19:13;;;;;;;7.85;3.80;;;;;;;16.58;55.49;102075.78;5011949;28;20168;-47
2022/05/05 12:21:52;;;;;;;5.63;3.60;;;;;;;16.52;57.30;102080.59;5011905;28;20176;-48